Peekskill, New York
Current Conditions -  °F | °C
As of 10:45 AM on Friday 24 Oct 2014 (Local Time) from KSWF Reporting Station
Broken Clouds Broken Clouds  
Wind Chill: 54°   Ceiling: 3500
Heat Index: 54°   Visibility: 15mi
Dew Point: 46°   Wind: 6mph
Humidity: 77%   Direction: 340°NNW
Pressure: 29.83"   Gusts: NA
Location:  41.29°N, 73.92°W
Report Text: KSWF 241445Z 34005KT 15SM SCT030 BKN035 12/08 A2983
Loading
Personal Weather Stations






























Interactive Weather Map New forecast layout! Learn more

10-Day Weather Forecast

Advertisements
Track Severe Weather on mobile